Terminal Aerodrome Forecast
Issued by NWS Blacksburg, VA

Home | Current Version | Previous Version | Text Only | Print | Product List | Glossary On
Versions: 1 2 3 4 5 6 7 8 9 10 11 12 13 14 15 16 17 18 19 20 21 22 23 24 25 26 27 28 29 30 31 32 33 34 35 36 37 38 39 40 41 42
401
FTUS41 KRNK 171127
TAFLYH
TAF
KLYH 171127Z 1712/1812 00000KT P6SM SCT003 OVC070
      TEMPO 1712/1713 OVC003
     FM171400 VRB03KT P6SM -RA OVC012
      TEMPO 1714/1716 2SM -RA BR OVC005
     FM171600 20004KT 4SM -RA BR SCT008 OVC016
     FM171800 21008KT P6SM VCSH SCT015 OVC070
     FM180200 22008KT P6SM OVC025
     FM180600 24007KT P6SM BKN090=

USA.gov is the U.S. government's official web portal to all federal, state and local government web resources and services.